Sturgeon Bay, WI (54235)

3:01 AM CST on December 20, 2014 (GMT -0600)
Leif Everson Observatory | Change Station
CLOSE
Current Station
Personal Weather Station
Location: Sturgeon Bay, WI
Elevation: 636 ft
Nearby Weather Stations

Elev 636 ft 44.83 °N, 87.34 °W | Updated 9 minutes ago

Overcast
Overcast
20.2 °F
Feels Like 20 °F
N
0.0
Wind Variable Wind from North
Gusts 0.0 mph

Today
High -- | Low -- °F
--% Chance of Precip.
Yesterday
High -- | Low -- °F
Precip. -- in
7:23 AM 4:10 PM
Waning Crescent, 4% visible
Pressure 30.28 in
Visibility 7.0 miles
Clouds Overcast 2800 ft
Windchill 20 °F
Dew Point 20 °F
Humidity 97%
Rainfall 0.00 in
Snow Depth Not available.
UV 0.0 out of 12
Pollen .10 out of 12
Air Quality Not available.
Flu Activity Not available.
METAR KSUE 200855Z AUTO 00000KT 7SM OVC028 M06/M08 A3028 RMK AO1 52003

More Conditions Fewer Conditions

Pressure 30.28 in
Visibility 7.0 miles
Clouds Overcast 2800 ft
Windchill 20 °F
Dew Point 20 °F
Humidity 97%
Rainfall 0.00 in
Snow Depth Not available.
UV 0.0 out of 12
Pollen .10 out of 12
Air Quality Not available.
Flu Activity Not available.
METAR KSUE 200855Z AUTO 00000KT 7SM OVC028 M06/M08 A3028 RMK AO1 52003

More Conditions Fewer Conditions

10-Day Weather Forecast

Almanac

Astronomy

Dec. 20, 2014 Rise Set
Actual Time
Civil Twilight
Nautical Twilight
Astronomical Twilight
Moon
Length of Visible Light
Length of Day
Tomorrow will be .
, % of the Moon is Illuminated

Today's Extremes

State Highs State Lows

Community

WunderPhotos

Upload Photos

1,779,146 photos uploaded!

WunderBlogs® & News

Nearby

Air Quality

  Air Quality AQ Index Pollutant
Not available.

Snow Depth

Station Depth Elevation

Earthquake Activity

City Distance Mag. Time & Date
Minimum magnitude displayed is 2.5.

Coastal Water Temperatures

Place Temperature

Nearby Weather Stations